createdAt,value
2023-03-13T00:00:53.470Z,195.23
2023-03-13T00:01:48.640Z,195.46
2023-03-13T00:02:43.736Z,196.28
2023-03-13T00:03:38.929Z,196.16
2023-03-13T00:04:34.065Z,196.63
2023-03-13T00:05:29.115Z,196.16
2023-03-13T00:06:24.496Z,196.16
2023-03-13T00:07:19.415Z,198.06
2023-03-13T00:08:14.640Z,197.46
2023-03-13T00:09:09.707Z,196.87
2023-03-13T00:10:04.959Z,197.11
2023-03-13T00:11:00.038Z,197.58
2023-03-13T00:11:55.337Z,197.70
2023-03-13T00:12:50.263Z,197.46
2023-03-13T00:13:45.635Z,192.71
2023-03-13T00:14:40.605Z,189.81
2023-03-13T00:15:35.827Z,189.59
2023-03-13T00:16:30.963Z,188.29
2023-03-13T00:17:26.262Z,189.26
2023-03-13T00:18:21.209Z,189.92
2023-03-13T00:19:16.306Z,190.14
2023-03-13T00:20:11.401Z,187.85
2023-03-13T00:21:06.462Z,189.59
2023-03-13T00:22:01.871Z,187.85
2023-03-13T00:22:56.807Z,186.57
2023-03-13T00:23:52.162Z,188.72
2023-03-13T00:24:48.033Z,191.58
2023-03-13T00:25:42.314Z,194.77
2023-03-13T00:26:37.404Z,194.77
2023-03-13T00:27:32.823Z,194.88
2023-03-13T00:28:27.766Z,195.23
2023-03-13T00:29:23.040Z,193.85
2023-03-13T00:30:18.936Z,198.78
2023-03-13T00:31:14.178Z,204.22
2023-03-13T00:32:09.337Z,208.11
2023-03-13T00:33:04.422Z,211.33
2023-03-13T00:34:00.374Z,213.25
2023-03-13T00:34:55.571Z,215.07
2023-03-13T00:35:50.698Z,216.91
2023-03-13T00:36:45.866Z,219.82
2023-03-13T00:37:41.084Z,222.20
2023-03-13T00:38:36.232Z,224.02
2023-03-13T00:39:31.327Z,226.65
2023-03-13T00:40:26.933Z,227.44
2023-03-13T00:41:22.110Z,229.99
2023-03-13T00:42:17.319Z,230.64
2023-03-13T00:43:12.371Z,231.29
2023-03-13T00:44:07.627Z,232.93
2023-03-13T00:45:02.687Z,232.76
2023-03-13T00:45:57.945Z,233.26
2023-03-13T00:46:53.010Z,235.60
2023-03-13T00:47:48.521Z,236.28
2023-03-13T00:48:43.471Z,238.17
2023-03-13T00:49:38.570Z,239.56
2023-03-13T00:50:33.666Z,241.50
2023-03-13T00:51:28.829Z,242.21
2023-03-13T00:52:23.915Z,239.56
2023-03-13T00:53:19.191Z,237.48
2023-03-13T00:54:14.132Z,237.14
2023-03-13T00:55:09.335Z,240.26
2023-03-13T00:56:04.455Z,240.97
2023-03-13T00:56:59.827Z,240.79
2023-03-13T00:57:54.924Z,240.09
2023-03-13T00:58:50.154Z,243.29
2023-03-13T00:59:45.254Z,243.83
2023-03-13T01:00:40.387Z,243.29
2023-03-13T01:01:38.987Z,240.79
2023-03-13T01:02:34.289Z,241.50
2023-03-13T01:03:29.210Z,238.69
2023-03-13T01:04:24.303Z,235.27
2023-03-13T01:05:19.382Z,236.97
2023-03-13T01:06:18.975Z,238.34
2023-03-13T01:07:14.035Z,238.52
2023-03-13T01:08:09.285Z,240.09
2023-03-13T01:09:04.219Z,239.56
2023-03-13T01:09:59.484Z,239.91
2023-03-13T01:10:54.617Z,240.62
2023-03-13T01:11:49.748Z,239.74
2023-03-13T01:12:44.964Z,239.74
2023-03-13T01:13:39.942Z,236.80
2023-03-13T01:14:35.009Z,237.82
2023-03-13T01:15:30.325Z,238.34
2023-03-13T01:16:25.549Z,236.45
2023-03-13T01:17:20.676Z,238.00
2023-03-13T01:18:15.929Z,238.17
2023-03-13T01:19:13.149Z,236.62
2023-03-13T01:20:06.110Z,235.94
2023-03-13T01:21:01.473Z,235.10
2023-03-13T01:21:56.461Z,236.80
2023-03-13T01:22:51.730Z,239.56
2023-03-13T01:23:46.679Z,238.52
2023-03-13T01:24:41.873Z,239.56
2023-03-13T01:25:37.081Z,237.82
2023-03-13T01:26:32.234Z,239.04
2023-03-13T01:27:27.290Z,240.62
2023-03-13T01:28:22.676Z,239.56
2023-03-13T01:29:17.766Z,239.74
2023-03-13T01:30:12.894Z,241.50
2023-03-13T01:31:07.895Z,241.15
2023-03-13T01:32:02.993Z,240.26
2023-03-13T01:32:58.276Z,240.79
2023-03-13T01:33:53.305Z,240.44
2023-03-13T01:34:48.434Z,241.32
2023-03-13T01:35:43.570Z,243.29
2023-03-13T01:36:38.690Z,244.56
2023-03-13T01:37:34.055Z,244.02
2023-03-13T01:38:29.316Z,243.11
2023-03-13T01:39:24.281Z,241.68
2023-03-13T01:40:19.354Z,242.39
2023-03-13T01:41:14.564Z,244.74
2023-03-13T01:42:09.614Z,246.95
2023-03-13T01:43:06.328Z,249.39
2023-03-13T01:43:59.915Z,251.69
2023-03-13T01:44:55.244Z,251.11
2023-03-13T01:45:50.324Z,252.27
2023-03-13T01:46:45.477Z,253.05
2023-03-13T01:47:40.406Z,256.01
2023-03-13T01:48:35.643Z,256.21
2023-03-13T01:49:30.881Z,257.21
2023-03-13T01:50:25.970Z,257.82
2023-03-13T01:51:21.018Z,257.21
2023-03-13T01:52:16.122Z,258.63
2023-03-13T01:53:11.402Z,258.23
2023-03-13T01:54:06.344Z,260.48
2023-03-13T01:55:01.459Z,260.48
2023-03-13T01:55:56.711Z,262.57
2023-03-13T01:56:51.791Z,264.68
2023-03-13T01:57:47.013Z,264.90
2023-03-13T01:58:42.282Z,267.49
2023-03-13T01:59:37.431Z,266.40
2023-03-13T02:00:32.510Z,268.80
2023-03-13T02:01:27.771Z,269.02
2023-03-13T02:02:22.828Z,267.05
2023-03-13T02:03:18.140Z,268.14
2023-03-13T02:04:13.085Z,269.24
2023-03-13T02:05:08.348Z,271.47
2023-03-13T02:06:03.576Z,270.35
2023-03-13T02:06:58.700Z,269.02
2023-03-13T02:07:53.807Z,269.02
2023-03-13T02:08:49.105Z,269.69
2023-03-13T02:09:44.089Z,270.80
2023-03-13T02:10:40.029Z,270.13
2023-03-13T02:11:35.138Z,270.35
2023-03-13T02:12:30.491Z,271.70
2023-03-13T02:13:26.857Z,270.13
2023-03-13T02:14:22.453Z,270.58
2023-03-13T02:15:17.604Z,268.58
2023-03-13T02:16:12.762Z,270.58
2023-03-13T02:17:07.948Z,270.35
2023-03-13T02:18:03.803Z,270.80
2023-03-13T02:18:59.063Z,271.70
2023-03-13T02:19:54.846Z,269.47
2023-03-13T02:20:49.911Z,270.13
2023-03-13T02:21:45.033Z,270.13
2023-03-13T02:22:41.082Z,268.80
2023-03-13T02:23:36.337Z,269.47
2023-03-13T02:24:31.385Z,270.58
2023-03-13T02:25:27.750Z,270.80
2023-03-13T02:26:22.870Z,271.25
2023-03-13T02:27:18.697Z,272.15
2023-03-13T02:28:13.764Z,273.74
2023-03-13T02:29:09.317Z,273.97
2023-03-13T02:30:04.915Z,273.51
2023-03-13T02:31:00.229Z,272.15
2023-03-13T02:31:55.992Z,273.97
2023-03-13T02:32:51.283Z,271.70
2023-03-13T02:33:46.718Z,271.70
2023-03-13T02:34:42.288Z,269.91
2023-03-13T02:35:37.494Z,268.80
2023-03-13T02:36:32.613Z,267.05
2023-03-13T02:37:28.925Z,264.90
2023-03-13T02:38:24.384Z,262.78
2023-03-13T02:39:20.073Z,260.27
2023-03-13T02:40:15.149Z,259.45
2023-03-13T02:41:10.259Z,260.69
2023-03-13T02:42:06.198Z,261.10
2023-03-13T02:43:01.538Z,261.31
2023-03-13T02:43:57.266Z,262.15
2023-03-13T02:44:52.357Z,262.78
2023-03-13T02:45:47.640Z,263.83
2023-03-13T02:46:43.365Z,264.90
2023-03-13T02:47:38.520Z,264.68
2023-03-13T02:48:33.772Z,265.97
2023-03-13T02:49:30.012Z,263.20
2023-03-13T02:50:25.140Z,261.94
2023-03-13T02:51:20.932Z,262.36
2023-03-13T02:52:16.031Z,262.36
2023-03-13T02:53:11.356Z,261.10
2023-03-13T02:54:07.039Z,260.48
2023-03-13T02:55:02.263Z,260.48
2023-03-13T02:55:58.312Z,260.27
2023-03-13T02:56:53.426Z,258.23
2023-03-13T02:57:48.522Z,259.04
2023-03-13T02:58:51.334Z,258.43
2023-03-13T02:59:40.557Z,257.82
2023-03-13T03:00:34.680Z,257.01
2023-03-13T03:01:29.655Z,257.82
2023-03-13T03:02:24.666Z,256.81
2023-03-13T03:03:19.699Z,256.61
2023-03-13T03:04:14.825Z,256.41
2023-03-13T03:05:09.866Z,254.62
2023-03-13T03:06:04.995Z,256.61
2023-03-13T03:06:59.987Z,257.21
2023-03-13T03:08:00.118Z,258.23
2023-03-13T03:08:55.228Z,257.42
2023-03-13T03:09:50.744Z,256.81
2023-03-13T03:10:45.837Z,259.86
2023-03-13T03:11:40.917Z,259.66
2023-03-13T03:12:37.609Z,260.48
2023-03-13T03:13:33.068Z,259.86
2023-03-13T03:14:28.681Z,257.42
2023-03-13T03:15:23.962Z,257.01
2023-03-13T03:16:19.034Z,256.81
2023-03-13T03:17:14.975Z,255.41
2023-03-13T03:18:10.236Z,252.46
2023-03-13T03:19:05.372Z,251.11
2023-03-13T03:20:01.763Z,249.96
2023-03-13T03:20:56.927Z,251.50
2023-03-13T03:21:52.761Z,252.66
2023-03-13T03:22:48.005Z,253.24
2023-03-13T03:23:43.237Z,254.82
2023-03-13T03:24:39.009Z,254.23
2023-03-13T03:25:34.114Z,257.42
2023-03-13T03:26:29.932Z,260.48
2023-03-13T03:27:24.989Z,262.78
2023-03-13T03:28:20.502Z,265.76
2023-03-13T03:29:15.375Z,266.40
2023-03-13T03:30:10.481Z,269.47
2023-03-13T03:31:06.280Z,270.13
2023-03-13T03:32:01.673Z,264.90
2023-03-13T03:32:56.852Z,262.57
2023-03-13T03:33:51.875Z,264.26
2023-03-13T03:34:48.316Z,261.73
2023-03-13T03:35:43.605Z,262.99
2023-03-13T03:36:38.657Z,264.26
2023-03-13T03:37:38.111Z,264.47
2023-03-13T03:38:33.053Z,266.19
2023-03-13T03:39:28.433Z,267.49
2023-03-13T03:40:23.534Z,270.35
2023-03-13T03:41:18.670Z,271.25
2023-03-13T03:42:13.772Z,270.35
2023-03-13T03:43:09.701Z,270.35
2023-03-13T03:44:04.915Z,270.35
2023-03-13T03:45:00.028Z,272.15
2023-03-13T03:45:55.304Z,271.70
2023-03-13T03:46:50.338Z,270.80
2023-03-13T03:47:45.603Z,271.92
2023-03-13T03:48:41.908Z,270.35
2023-03-13T03:49:37.176Z,270.13
2023-03-13T03:50:32.296Z,270.35
2023-03-13T03:51:27.356Z,269.91
2023-03-13T03:52:22.888Z,271.92
2023-03-13T03:53:17.734Z,272.83
2023-03-13T03:54:12.820Z,271.02
2023-03-13T03:55:07.790Z,272.37
2023-03-13T03:56:02.908Z,273.97
2023-03-13T03:56:58.102Z,274.42
2023-03-13T03:57:53.229Z,274.20
2023-03-13T03:58:48.322Z,273.74
2023-03-13T03:59:43.372Z,271.02
2023-03-13T04:00:38.358Z,269.47
2023-03-13T04:01:33.488Z,267.49
2023-03-13T04:02:28.697Z,266.40
2023-03-13T04:03:23.731Z,264.47
2023-03-13T04:04:18.835Z,264.47
2023-03-13T04:05:13.856Z,265.11
2023-03-13T04:06:08.925Z,265.11
2023-03-13T04:07:03.988Z,263.83
2023-03-13T04:07:58.962Z,265.33
2023-03-13T04:08:54.098Z,264.05
2023-03-13T04:09:49.159Z,261.31
2023-03-13T04:10:44.196Z,260.48
2023-03-13T04:11:39.274Z,261.10
2023-03-13T04:12:34.381Z,260.48
2023-03-13T04:13:31.639Z,261.73
2023-03-13T04:14:26.710Z,261.10
2023-03-13T04:15:21.837Z,258.02
2023-03-13T04:16:17.164Z,253.24
2023-03-13T04:17:12.336Z,246.95
2023-03-13T04:18:07.342Z,242.04
2023-03-13T04:19:02.432Z,241.15
2023-03-13T04:19:57.463Z,241.50
2023-03-13T04:20:52.619Z,233.93
2023-03-13T04:21:47.694Z,227.60
2023-03-13T04:22:42.872Z,229.99
2023-03-13T04:23:37.733Z,232.76
2023-03-13T04:24:32.895Z,232.27
2023-03-13T04:25:32.295Z,231.61
2023-03-13T04:26:27.433Z,230.80
2023-03-13T04:27:22.623Z,228.07
2023-03-13T04:28:17.480Z,229.99
2023-03-13T04:29:12.478Z,234.60
2023-03-13T04:30:07.564Z,238.00
2023-03-13T04:31:02.626Z,241.15
2023-03-13T04:31:57.778Z,241.68
2023-03-13T04:32:52.650Z,243.47
2023-03-13T04:33:47.739Z,243.65
2023-03-13T04:34:42.709Z,243.11
2023-03-13T04:35:37.905Z,240.62
2023-03-13T04:36:32.819Z,239.39
2023-03-13T04:37:27.929Z,235.94
2023-03-13T04:38:23.069Z,238.86
2023-03-13T04:39:18.903Z,242.04
2023-03-13T04:40:14.011Z,244.93
2023-03-13T04:41:09.928Z,246.21
2023-03-13T04:42:05.219Z,248.26
2023-03-13T04:43:00.114Z,248.07
2023-03-13T04:43:55.909Z,245.48
2023-03-13T04:44:51.275Z,245.11
2023-03-13T04:45:46.397Z,246.40
2023-03-13T04:46:41.407Z,248.83
2023-03-13T04:47:36.478Z,249.58
2023-03-13T04:48:31.489Z,249.39
2023-03-13T04:49:26.475Z,245.84
2023-03-13T04:50:21.510Z,246.95
2023-03-13T04:51:21.124Z,245.84
2023-03-13T04:52:16.294Z,237.65
2023-03-13T04:53:11.647Z,237.48
2023-03-13T04:54:07.457Z,232.10
2023-03-13T04:55:02.553Z,230.64
2023-03-13T04:55:57.681Z,230.64
2023-03-13T04:56:53.900Z,233.76
2023-03-13T04:57:49.083Z,237.31
2023-03-13T04:58:46.892Z,238.00
2023-03-13T04:59:40.077Z,242.57
2023-03-13T05:00:35.139Z,244.74
2023-03-13T05:01:30.407Z,248.07
2023-03-13T05:02:25.629Z,249.58
2023-03-13T05:03:20.737Z,248.45
2023-03-13T05:04:15.842Z,249.96
2023-03-13T05:05:11.045Z,254.23
2023-03-13T05:06:06.023Z,251.69
2023-03-13T05:07:01.172Z,252.85
2023-03-13T05:07:56.227Z,252.66
2023-03-13T05:08:56.328Z,255.21
2023-03-13T05:09:51.532Z,256.61
2023-03-13T05:10:46.671Z,256.61
2023-03-13T05:11:41.891Z,256.21
2023-03-13T05:12:36.913Z,257.82
2023-03-13T05:13:31.956Z,259.86
2023-03-13T05:14:28.119Z,262.36
2023-03-13T05:15:23.079Z,266.19
2023-03-13T05:16:18.606Z,267.71
2023-03-13T05:17:13.566Z,268.36
2023-03-13T05:18:08.704Z,269.69
2023-03-13T05:19:03.763Z,270.13
2023-03-13T05:20:00.237Z,270.58
2023-03-13T05:20:55.341Z,272.37
2023-03-13T05:21:50.660Z,271.02
2023-03-13T05:22:45.618Z,267.49
2023-03-13T05:23:40.733Z,265.33
2023-03-13T05:24:35.869Z,270.35
2023-03-13T05:25:30.962Z,273.51
2023-03-13T05:26:25.974Z,276.74
2023-03-13T05:27:20.990Z,275.11
2023-03-13T05:28:19.114Z,278.15
2023-03-13T05:29:14.289Z,277.21
2023-03-13T05:30:09.469Z,280.29
2023-03-13T05:31:04.634Z,282.46
2023-03-13T05:31:59.812Z,286.15
2023-03-13T05:32:55.041Z,288.16
2023-03-13T05:33:50.079Z,290.46
2023-03-13T05:34:45.478Z,289.69
2023-03-13T05:35:40.673Z,288.92
2023-03-13T05:36:35.697Z,290.20
2023-03-13T05:37:30.860Z,291.75
2023-03-13T05:38:26.243Z,293.05
2023-03-13T05:39:21.236Z,293.31
2023-03-13T05:40:16.638Z,292.27
2023-03-13T05:41:11.753Z,294.37
2023-03-13T05:42:07.112Z,295.69
2023-03-13T05:43:02.298Z,295.96
2023-03-13T05:43:57.648Z,297.30
2023-03-13T05:44:52.778Z,279.81
2023-03-13T05:45:47.951Z,275.11
2023-03-13T05:46:43.218Z,270.58
2023-03-13T05:47:38.456Z,262.78
2023-03-13T05:48:33.652Z,219.82
2023-03-13T05:49:28.759Z,206.02
2023-03-13T05:50:23.893Z,204.99
2023-03-13T05:51:18.920Z,206.93
2023-03-13T05:52:13.900Z,210.51
2023-03-13T05:53:08.913Z,216.34
2023-03-13T05:54:04.004Z,221.45
2023-03-13T05:54:59.042Z,224.79
2023-03-13T05:55:54.318Z,232.27
2023-03-13T05:56:49.185Z,232.43
2023-03-13T05:57:44.162Z,230.80
2023-03-13T05:58:39.170Z,238.00
2023-03-13T05:59:34.314Z,238.86
2023-03-13T06:00:29.301Z,239.39
2023-03-13T06:01:24.466Z,244.93
2023-03-13T06:02:19.343Z,247.51
2023-03-13T06:03:14.613Z,241.50
2023-03-13T06:04:09.619Z,244.02
2023-03-13T06:05:04.641Z,244.38
2023-03-13T06:05:59.823Z,251.50
2023-03-13T06:06:54.813Z,248.26
2023-03-13T06:07:51.318Z,230.48
2023-03-13T06:08:46.591Z,217.35
2023-03-13T06:09:42.018Z,211.60
2023-03-13T06:10:37.141Z,215.91
2023-03-13T06:11:32.563Z,215.49
2023-03-13T06:12:27.716Z,219.53
2023-03-13T06:13:23.080Z,227.60
2023-03-13T06:14:18.307Z,234.76
2023-03-13T06:15:13.610Z,233.59
2023-03-13T06:16:09.316Z,237.65
2023-03-13T06:17:04.249Z,238.00
2023-03-13T06:17:59.465Z,229.03
2023-03-13T06:18:54.717Z,237.14
2023-03-13T06:19:50.098Z,245.66
2023-03-13T06:20:45.250Z,255.61
2023-03-13T06:21:40.535Z,266.84
2023-03-13T06:22:36.529Z,242.57
2023-03-13T06:23:31.822Z,219.23
2023-03-13T06:24:27.149Z,230.48
2023-03-13T06:25:22.428Z,226.50
2023-03-13T06:26:17.709Z,219.53
2023-03-13T06:27:13.243Z,228.07
2023-03-13T06:28:08.415Z,236.11
2023-03-13T06:29:03.722Z,237.48
2023-03-13T06:29:59.130Z,222.96
2023-03-13T06:30:54.133Z,221.90
2023-03-13T06:31:49.399Z,229.35
2023-03-13T06:32:44.380Z,231.12
2023-03-13T06:33:39.437Z,232.93
2023-03-13T06:34:34.438Z,221.30
2023-03-13T06:35:29.511Z,232.43
2023-03-13T06:36:24.572Z,232.93
2023-03-13T06:37:19.687Z,233.43
2023-03-13T06:38:14.605Z,240.62
2023-03-13T06:39:09.854Z,242.21
2023-03-13T06:40:05.720Z,250.54
2023-03-13T06:41:00.750Z,250.54
2023-03-13T06:41:55.722Z,257.62
2023-03-13T06:42:50.960Z,270.80
2023-03-13T06:43:46.051Z,269.91
2023-03-13T06:44:41.089Z,265.33
2023-03-13T06:45:36.078Z,263.62
2023-03-13T06:46:31.252Z,265.76
2023-03-13T06:47:26.416Z,259.66
2023-03-13T06:48:21.487Z,237.48
2023-03-13T06:49:16.525Z,208.37
2023-03-13T06:50:11.622Z,211.74
2023-03-13T06:51:06.646Z,225.87
2023-03-13T06:52:01.916Z,238.86
2023-03-13T06:52:56.743Z,240.79
2023-03-13T06:53:51.855Z,237.82
2023-03-13T06:54:46.847Z,230.80
2023-03-13T06:55:42.115Z,235.94
2023-03-13T06:56:37.416Z,240.09
2023-03-13T06:57:32.816Z,242.93
2023-03-13T06:58:32.402Z,247.33
2023-03-13T06:59:23.494Z,243.47
2023-03-13T07:00:18.898Z,245.84
2023-03-13T07:01:14.421Z,249.58
2023-03-13T07:02:09.710Z,256.81
2023-03-13T07:03:05.522Z,253.05
2023-03-13T07:04:01.185Z,255.41
2023-03-13T07:04:56.461Z,238.86
2023-03-13T07:05:51.682Z,231.94
2023-03-13T07:06:47.101Z,229.99
2023-03-13T07:07:42.543Z,237.65
2023-03-13T07:08:37.911Z,242.75
2023-03-13T07:09:33.325Z,247.33
2023-03-13T07:10:28.814Z,238.00
2023-03-13T07:11:24.075Z,235.94
2023-03-13T07:12:19.585Z,243.65
2023-03-13T07:13:14.907Z,250.54
2023-03-13T07:14:16.896Z,248.64
2023-03-13T07:15:06.491Z,249.77
2023-03-13T07:16:00.964Z,251.88
2023-03-13T07:16:56.626Z,255.41
2023-03-13T07:17:51.783Z,257.82
2023-03-13T07:18:47.277Z,261.52
2023-03-13T07:19:42.357Z,265.11
2023-03-13T07:20:37.443Z,274.20
2023-03-13T07:21:32.496Z,276.51
2023-03-13T07:22:27.451Z,275.11
2023-03-13T07:23:22.558Z,281.01
2023-03-13T07:24:17.606Z,278.86
2023-03-13T07:25:12.625Z,280.77
2023-03-13T07:26:07.769Z,284.91
2023-03-13T07:27:07.546Z,293.05
2023-03-13T07:27:58.737Z,293.84
2023-03-13T07:28:52.748Z,290.97
2023-03-13T07:29:47.791Z,282.46
2023-03-13T07:30:42.940Z,280.05
2023-03-13T07:31:38.012Z,289.69
2023-03-13T07:32:33.962Z,295.69
2023-03-13T07:33:29.151Z,291.23
2023-03-13T07:34:24.655Z,300.84
2023-03-13T07:35:20.165Z,306.18
2023-03-13T07:36:15.857Z,315.30
2023-03-13T07:37:11.165Z,318.36
2023-03-13T07:38:06.421Z,322.74
2023-03-13T07:39:01.834Z,330.88
2023-03-13T07:39:57.284Z,338.04
2023-03-13T07:40:52.912Z,346.61
2023-03-13T07:41:48.465Z,353.33
2023-03-13T07:42:43.486Z,356.01
2023-03-13T07:43:38.617Z,357.17
2023-03-13T07:44:33.618Z,345.88
2023-03-13T07:45:28.727Z,342.27
2023-03-13T07:46:23.993Z,345.51
2023-03-13T07:47:18.781Z,352.95
2023-03-13T07:48:13.828Z,351.43
2023-03-13T07:49:08.858Z,338.04
2023-03-13T07:50:03.923Z,343.70
2023-03-13T07:50:58.979Z,348.08
2023-03-13T07:51:54.048Z,346.61
2023-03-13T07:52:49.128Z,349.56
2023-03-13T07:53:44.168Z,361.10
2023-03-13T07:54:39.340Z,366.34
2023-03-13T07:55:34.771Z,366.34
2023-03-13T07:56:30.294Z,362.30
2023-03-13T07:57:26.247Z,361.50
2023-03-13T07:58:21.530Z,359.52
2023-03-13T07:59:17.503Z,360.31
2023-03-13T08:00:13.416Z,365.53
2023-03-13T08:01:08.665Z,365.12
2023-03-13T08:02:04.498Z,365.12
2023-03-13T08:03:00.040Z,363.91
2023-03-13T08:03:55.430Z,366.34
2023-03-13T08:04:52.022Z,364.31
2023-03-13T08:05:47.507Z,368.40
2023-03-13T08:06:43.349Z,365.93
2023-03-13T08:07:38.971Z,362.30
2023-03-13T08:08:34.340Z,365.53
2023-03-13T08:09:30.248Z,370.90
2023-03-13T08:10:25.732Z,375.14
2023-03-13T08:11:21.818Z,379.75
2023-03-13T08:12:16.925Z,393.64
2023-03-13T08:13:12.801Z,383.24
2023-03-13T08:14:08.318Z,380.61
2023-03-13T08:15:03.794Z,385.01
2023-03-13T08:15:59.585Z,396.69
2023-03-13T08:16:55.754Z,404.88
2023-03-13T08:17:51.185Z,405.62
2023-03-13T08:18:47.179Z,411.12
2023-03-13T08:19:42.788Z,414.44
2023-03-13T08:20:38.388Z,417.03
2023-03-13T08:21:34.054Z,419.13
2023-03-13T08:22:29.453Z,416.25
2023-03-13T08:23:25.451Z,404.63
2023-03-13T08:24:20.621Z,381.92
2023-03-13T08:25:16.162Z,382.36
2023-03-13T08:26:11.768Z,388.82
2023-03-13T08:27:07.412Z,402.92
2023-03-13T08:28:02.846Z,411.62
2023-03-13T08:28:59.373Z,415.21
2023-03-13T08:29:54.727Z,414.95
2023-03-13T08:30:50.894Z,419.39
2023-03-13T08:31:46.161Z,419.13
2023-03-13T08:32:41.948Z,411.88
2023-03-13T08:33:37.436Z,409.85
2023-03-13T08:34:32.916Z,403.41
2023-03-13T08:35:29.002Z,402.19
2023-03-13T08:36:24.536Z,397.16
2023-03-13T08:37:19.858Z,388.60
2023-03-13T08:38:15.743Z,383.68
2023-03-13T08:39:11.133Z,375.14
2023-03-13T08:40:06.676Z,371.74
2023-03-13T08:41:02.984Z,383.46
2023-03-13T08:41:58.491Z,390.19
2023-03-13T08:42:54.380Z,397.16
2023-03-13T08:43:49.750Z,398.35
2023-03-13T08:44:45.366Z,396.22
2023-03-13T08:45:41.096Z,392.95
2023-03-13T08:46:36.660Z,382.58
2023-03-13T08:47:33.045Z,376.00
2023-03-13T08:48:28.403Z,373.86
2023-03-13T08:49:24.520Z,335.96
2023-03-13T08:50:19.844Z,326.27
2023-03-13T08:51:15.492Z,333.23
2023-03-13T08:52:10.980Z,346.24
2023-03-13T08:53:06.494Z,356.01
2023-03-13T08:54:02.379Z,367.16
2023-03-13T08:54:57.739Z,373.86
2023-03-13T08:55:53.467Z,384.56
2023-03-13T08:56:49.128Z,387.02
2023-03-13T08:57:44.775Z,381.27
2023-03-13T08:58:40.252Z,383.68
2023-03-13T08:59:36.634Z,380.61
2023-03-13T09:00:32.278Z,384.34
2023-03-13T09:01:27.669Z,395.75
2023-03-13T09:02:23.322Z,413.92
2023-03-13T09:03:19.855Z,418.60
2023-03-13T09:04:15.315Z,404.63
2023-03-13T09:05:11.940Z,413.16
2023-03-13T09:06:07.442Z,419.39
2023-03-13T09:07:02.952Z,430.21
2023-03-13T09:07:58.690Z,425.28
2023-03-13T09:08:54.375Z,407.60
2023-03-13T09:09:49.623Z,424.46
2023-03-13T09:10:45.285Z,443.08
2023-03-13T09:11:40.393Z,458.62
2023-03-13T09:12:35.496Z,464.37
2023-03-13T09:13:30.592Z,482.51
2023-03-13T09:14:25.574Z,501.76
2023-03-13T09:15:20.653Z,511.38
2023-03-13T09:16:15.759Z,512.16
2023-03-13T09:17:10.753Z,519.74
2023-03-13T09:18:05.902Z,505.56
2023-03-13T09:19:00.903Z,503.65
2023-03-13T09:20:00.681Z,501.38
2023-03-13T09:20:53.041Z,512.55
2023-03-13T09:21:47.317Z,515.73
2023-03-13T09:22:42.958Z,519.74
2023-03-13T09:23:38.752Z,479.39
2023-03-13T09:24:34.221Z,478.70
2023-03-13T09:25:29.698Z,491.77
2023-03-13T09:26:25.231Z,497.64
2023-03-13T09:27:20.822Z,490.32
2023-03-13T09:28:16.317Z,478.70
2023-03-13T09:29:11.664Z,476.99
2023-03-13T09:30:07.236Z,479.39
2023-03-13T09:31:02.644Z,480.43
2023-03-13T09:31:57.967Z,488.88
2023-03-13T09:32:53.091Z,504.79
2023-03-13T09:33:48.210Z,494.32
2023-03-13T09:34:43.171Z,487.10
2023-03-13T09:35:38.377Z,496.16
2023-03-13T09:36:33.195Z,499.88
2023-03-13T09:37:28.243Z,482.86
2023-03-13T09:38:23.451Z,479.39
2023-03-13T09:39:21.350Z,483.21
2023-03-13T09:40:16.499Z,477.67
2023-03-13T09:41:11.550Z,472.60
2023-03-13T09:42:07.813Z,478.02
2023-03-13T09:43:01.652Z,483.56
2023-03-13T09:43:56.739Z,476.31
2023-03-13T09:44:51.998Z,480.43
2023-03-13T09:45:46.964Z,475.97
2023-03-13T09:46:42.260Z,475.97
2023-03-13T09:47:37.747Z,465.02
2023-03-13T09:48:33.211Z,433.29
2023-03-13T09:49:28.533Z,436.70
2023-03-13T09:50:24.030Z,443.67
2023-03-13T09:51:19.627Z,442.49
2023-03-13T09:52:14.800Z,435.55
2023-03-13T09:53:10.307Z,414.18
2023-03-13T09:54:05.872Z,421.51
2023-03-13T09:55:01.436Z,438.99
2023-03-13T09:55:56.768Z,448.44
2023-03-13T09:56:52.169Z,463.72
2023-03-13T09:57:47.798Z,467.30
2023-03-13T09:58:43.198Z,467.95
2023-03-13T09:59:38.755Z,461.16
2023-03-13T10:00:34.257Z,463.40
2023-03-13T10:01:29.850Z,468.28
2023-03-13T10:02:29.041Z,498.38
2023-03-13T10:03:24.332Z,515.33
2023-03-13T10:04:19.939Z,524.24
2023-03-13T10:05:15.553Z,529.23
2023-03-13T10:06:10.923Z,538.64
2023-03-13T10:07:06.434Z,546.59
2023-03-13T10:08:01.973Z,543.02
2023-03-13T10:08:58.695Z,551.56
2023-03-13T10:09:54.321Z,562.73
2023-03-13T10:10:50.101Z,580.36
2023-03-13T10:11:45.220Z,584.43
2023-03-13T10:12:40.742Z,592.21
2023-03-13T10:13:36.518Z,594.86
2023-03-13T10:14:32.862Z,601.84
2023-03-13T10:15:28.378Z,592.21
2023-03-13T10:16:23.825Z,549.29
2023-03-13T10:17:19.133Z,551.10
2023-03-13T10:18:16.583Z,559.89
2023-03-13T10:19:12.208Z,549.74
2023-03-13T10:20:07.477Z,570.43
2023-03-13T10:21:03.183Z,575.35
2023-03-13T10:21:58.452Z,571.90
2023-03-13T10:22:54.132Z,579.85
2023-03-13T10:23:49.636Z,471.93
2023-03-13T10:24:45.227Z,461.16
2023-03-13T10:25:40.758Z,485.32
2023-03-13T10:26:36.271Z,497.64
2023-03-13T10:27:31.684Z,485.68
2023-03-13T10:28:27.334Z,478.02
2023-03-13T10:29:22.634Z,428.01
2023-03-13T10:30:18.263Z,416.77
2023-03-13T10:31:13.660Z,446.64
2023-03-13T10:32:08.571Z,456.11
2023-03-13T10:33:03.670Z,475.29
2023-03-13T10:33:58.641Z,489.60
2023-03-13T10:34:53.748Z,495.42
2023-03-13T10:35:48.973Z,480.43
2023-03-13T10:36:43.987Z,496.16
2023-03-13T10:37:38.975Z,485.68
2023-03-13T10:38:34.184Z,503.65
2023-03-13T10:39:29.282Z,520.56
2023-03-13T10:40:24.419Z,520.56
2023-03-13T10:41:21.271Z,491.04
2023-03-13T10:42:16.260Z,480.08
2023-03-13T10:43:11.327Z,493.95
2023-03-13T10:44:06.345Z,510.98
2023-03-13T10:45:01.968Z,536.90
2023-03-13T10:45:57.530Z,545.24
2023-03-13T10:46:53.109Z,545.24
2023-03-13T10:47:48.492Z,547.48
2023-03-13T10:48:44.147Z,554.77
2023-03-13T10:49:39.671Z,557.55
2023-03-13T10:50:35.312Z,544.35
2023-03-13T10:51:30.804Z,542.14
2023-03-13T10:52:26.266Z,548.83
2023-03-13T10:53:21.727Z,569.46
2023-03-13T10:54:17.093Z,570.92
2023-03-13T10:55:12.551Z,558.02
2023-03-13T10:56:08.063Z,545.24
2023-03-13T10:57:03.620Z,526.72
2023-03-13T10:57:58.683Z,536.04
2023-03-13T10:58:53.764Z,538.20
2023-03-13T10:59:48.862Z,523.42
2023-03-13T11:00:43.888Z,514.93
2023-03-13T11:01:38.862Z,489.60
2023-03-13T11:02:34.200Z,498.01
2023-03-13T11:03:29.125Z,504.41
2023-03-13T11:04:26.706Z,536.04
2023-03-13T11:05:21.643Z,506.71
2023-03-13T11:06:16.890Z,531.34
2023-03-13T11:07:11.728Z,547.48
2023-03-13T11:08:06.795Z,553.85
2023-03-13T11:09:01.896Z,533.04
2023-03-13T11:09:57.117Z,522.60
2023-03-13T11:10:52.264Z,507.10
2023-03-13T11:11:47.778Z,522.60
2023-03-13T11:12:43.023Z,526.72
2023-03-13T11:13:38.633Z,527.14
2023-03-13T11:14:34.008Z,539.51
2023-03-13T11:15:29.384Z,545.24
2023-03-13T11:16:24.970Z,546.14
2023-03-13T11:17:20.365Z,566.07
2023-03-13T11:18:15.884Z,577.84
2023-03-13T11:19:11.394Z,564.16
2023-03-13T11:20:06.824Z,564.16
2023-03-13T11:21:17.283Z,562.25
2023-03-13T11:21:58.829Z,561.78
2023-03-13T11:22:53.185Z,559.89
2023-03-13T11:23:48.451Z,559.89
2023-03-13T11:24:44.138Z,560.84
2023-03-13T11:25:39.593Z,570.92
2023-03-13T11:26:35.233Z,588.55
2023-03-13T11:27:30.755Z,595.39
2023-03-13T11:29:50.707Z,656.98
2023-03-13T11:30:45.939Z,602.38
2023-03-13T11:31:41.582Z,598.59
2023-03-13T11:32:36.811Z,572.88